Pleasantville, Indiana
Current Conditions -  °F | °C
As of 4:15 PM on Monday 22 Dec 2014 (Local Time) from KRSV Reporting Station
Light Rain Light Rain  
Wind Chill: 41°   Ceiling: 2100
Heat Index: 47°   Visibility: 7mi
Dew Point: 45°   Wind: 13mph
Humidity: 92%   Direction: 140°SE
Pressure: 29.7"   Gusts: NA
Location:  38.9636°N, 87.3568°W
Report Text: KRSV 222115Z AUTO 14011KT 7SM -RA BKN021 BKN041 OVC060 08/07 A2970 RMK AO2 T00830070
Loading
Personal Weather Stations






























Interactive Weather Map New forecast layout! Learn more

10-Day Weather Forecast

Advertisements
Track Severe Weather on mobile